sensor_id;sensor_type;location;lat;lon;timestamp;pressure;altitude;pressure_sealevel;temperature;humidity
33422;BME280;19763;55.798;37.782;2023-05-20T00:01:08;150587.06;;;13.12;55.07
33422;BME280;19763;55.798;37.782;2023-05-20T00:03:33;150570.34;;;13.06;55.25
33422;BME280;19763;55.798;37.782;2023-05-20T00:05:59;150597.28;;;13.17;53.71
33422;BME280;19763;55.798;37.782;2023-05-20T00:08:25;150584.47;;;13.11;54.66
33422;BME280;19763;55.798;37.782;2023-05-20T00:10:50;150549.75;;;12.98;54.86
33422;BME280;19763;55.798;37.782;2023-05-20T00:13:16;150549.75;;;12.98;55.55
33422;BME280;19763;55.798;37.782;2023-05-20T00:15:41;150536.91;;;12.92;55.43
33422;BME280;19763;55.798;37.782;2023-05-20T00:18:07;150562.63;;;13.03;55.35
33422;BME280;19763;55.798;37.782;2023-05-20T00:20:33;150570.34;;;13.06;55.86
33422;BME280;19763;55.798;37.782;2023-05-20T00:22:58;150557.47;;;13.01;55.03
33422;BME280;19763;55.798;37.782;2023-05-20T00:25:24;150552.34;;;12.99;55.64
33422;BME280;19763;55.798;37.782;2023-05-20T00:27:50;150548.50;;;12.97;55.69
33422;BME280;19763;55.798;37.782;2023-05-20T00:30:15;150562.63;;;13.03;55.76
33422;BME280;19763;55.798;37.782;2023-05-20T00:32:41;150544.66;;;12.95;55.71
33422;BME280;19763;55.798;37.782;2023-05-20T00:35:07;150545.91;;;12.96;56.49
33422;BME280;19763;55.798;37.782;2023-05-20T00:37:33;150521.50;;;12.86;56.17
33422;BME280;19763;55.798;37.782;2023-05-20T00:39:59;150533.06;;;12.91;55.80
33422;BME280;19763;55.798;37.782;2023-05-20T00:42:26;150526.66;;;12.88;56.57
33422;BME280;19763;55.798;37.782;2023-05-20T00:44:53;150524.06;;;12.87;56.81
33422;BME280;19763;55.798;37.782;2023-05-20T00:47:22;150531.78;;;12.90;56.16
33422;BME280;19763;55.798;37.782;2023-05-20T00:49:50;150534.38;;;12.91;56.46
33422;BME280;19763;55.798;37.782;2023-05-20T00:52:17;150485.53;;;12.72;56.95
33422;BME280;19763;55.798;37.782;2023-05-20T00:54:43;150515.06;;;12.84;57.18
33422;BME280;19763;55.798;37.782;2023-05-20T00:57:10;150526.66;;;12.88;56.43
33422;BME280;19763;55.798;37.782;2023-05-20T00:59:36;150502.25;;;12.78;58.19
33422;BME280;19763;55.798;37.782;2023-05-20T01:02:06;150508.63;;;12.81;57.29
33422;BME280;19763;55.798;37.782;2023-05-20T01:04:32;150508.63;;;12.81;58.28
33422;BME280;19763;55.798;37.782;2023-05-20T01:07:02;150498.41;;;12.77;57.16
33422;BME280;19763;55.798;37.782;2023-05-20T01:09:29;150488.13;;;12.73;57.09
33422;BME280;19763;55.798;37.782;2023-05-20T01:12:11;150479.09;;;12.69;57.29
33422;BME280;19763;55.798;37.782;2023-05-20T01:14:45;150461.13;;;12.62;57.28
33422;BME280;19763;55.798;37.782;2023-05-20T01:17:14;150484.28;;;12.71;58.06
33422;BME280;19763;55.798;37.782;2023-05-20T01:19:43;150482.94;;;12.71;56.92
33422;BME280;19763;55.798;37.782;2023-05-20T01:22:11;150488.13;;;12.73;57.71
33422;BME280;19763;55.798;37.782;2023-05-20T01:24:41;150474.00;;;12.67;58.63
33422;BME280;19763;55.798;37.782;2023-05-20T01:27:11;150454.69;;;12.59;58.13
33422;BME280;19763;55.798;37.782;2023-05-20T01:29:39;150486.81;;;12.72;57.95
33422;BME280;19763;55.798;37.782;2023-05-20T01:32:27;150476.53;;;12.68;58.90
33422;BME280;19763;55.798;37.782;2023-05-20T01:34:55;150475.25;;;12.68;58.81
33422;BME280;19763;55.798;37.782;2023-05-20T01:37:22;150463.72;;;12.63;58.32
33422;BME280;19763;55.798;37.782;2023-05-20T01:39:49;150445.72;;;12.56;59.07
33422;BME280;19763;55.798;37.782;2023-05-20T01:42:16;150450.84;;;12.58;59.29
33422;BME280;19763;55.798;37.782;2023-05-20T01:44:42;150466.28;;;12.64;58.94
33422;BME280;19763;55.798;37.782;2023-05-20T01:47:08;150466.28;;;12.64;58.40
33422;BME280;19763;55.798;37.782;2023-05-20T01:49:34;150463.72;;;12.63;59.49
33422;BME280;19763;55.798;37.782;2023-05-20T01:51:59;150450.84;;;12.58;59.43
33422;BME280;19763;55.798;37.782;2023-05-20T01:54:25;150472.66;;;12.67;59.55
33422;BME280;19763;55.798;37.782;2023-05-20T01:56:51;150457.28;;;12.60;59.62
33422;BME280;19763;55.798;37.782;2023-05-20T01:59:17;150470.13;;;12.66;59.80
33422;BME280;19763;55.798;37.782;2023-05-20T02:01:42;150480.41;;;12.70;60.22
33422;BME280;19763;55.798;37.782;2023-05-20T02:04:08;150411.03;;;12.42;59.82
33422;BME280;19763;55.798;37.782;2023-05-20T02:06:33;150444.41;;;12.55;60.77
33422;BME280;19763;55.798;37.782;2023-05-20T02:08:59;150456.00;;;12.60;60.00
33422;BME280;19763;55.798;37.782;2023-05-20T02:11:25;150418.72;;;12.45;60.09
33422;BME280;19763;55.798;37.782;2023-05-20T02:13:51;150413.63;;;12.43;60.83
33422;BME280;19763;55.798;37.782;2023-05-20T02:16:17;150427.75;;;12.49;60.80
33422;BME280;19763;55.798;37.782;2023-05-20T02:18:42;150457.28;;;12.60;60.39
33422;BME280;19763;55.798;37.782;2023-05-20T02:21:08;150411.03;;;12.42;61.19
33422;BME280;19763;55.798;37.782;2023-05-20T02:23:34;150391.78;;;12.34;61.88
33422;BME280;19763;55.798;37.782;2023-05-20T02:26:00;150407.19;;;12.40;61.09
33422;BME280;19763;55.798;37.782;2023-05-20T02:28:26;150405.94;;;12.40;61.46
33422;BME280;19763;55.798;37.782;2023-05-20T02:30:51;150351.94;;;12.18;62.46
33422;BME280;19763;55.798;37.782;2023-05-20T02:33:18;150395.66;;;12.36;62.33
33422;BME280;19763;55.798;37.782;2023-05-20T02:35:44;150427.75;;;12.49;62.47
33422;BME280;19763;55.798;37.782;2023-05-20T02:38:12;150395.66;;;12.36;62.54
33422;BME280;19763;55.798;37.782;2023-05-20T02:40:38;150413.63;;;12.43;61.84
33422;BME280;19763;55.798;37.782;2023-05-20T02:43:04;150403.34;;;12.39;62.64
33422;BME280;19763;55.798;37.782;2023-05-20T02:45:30;150411.03;;;12.42;62.52
33422;BME280;19763;55.798;37.782;2023-05-20T02:47:55;150403.34;;;12.39;62.39
33422;BME280;19763;55.798;37.782;2023-05-20T02:50:21;150391.78;;;12.34;62.57
33422;BME280;19763;55.798;37.782;2023-05-20T02:52:46;150407.19;;;12.40;63.05
33422;BME280;19763;55.798;37.782;2023-05-20T02:55:13;150398.19;;;12.37;62.75
33422;BME280;19763;55.798;37.782;2023-05-20T02:57:38;150412.31;;;12.42;63.75
33422;BME280;19763;55.798;37.782;2023-05-20T03:00:08;150403.34;;;12.39;63.52
33422;BME280;19763;55.798;37.782;2023-05-20T03:02:37;150380.19;;;12.30;63.23
33422;BME280;19763;55.798;37.782;2023-05-20T03:05:03;150387.94;;;12.33;63.35
33422;BME280;19763;55.798;37.782;2023-05-20T03:07:30;150399.50;;;12.37;63.09
33422;BME280;19763;55.798;37.782;2023-05-20T03:09:56;150398.19;;;12.37;63.74
33422;BME280;19763;55.798;37.782;2023-05-20T03:12:23;150390.47;;;12.34;64.22
33422;BME280;19763;55.798;37.782;2023-05-20T03:14:51;150416.16;;;12.44;63.49
33422;BME280;19763;55.798;37.782;2023-05-20T03:17:22;150420.06;;;12.46;63.38
33422;BME280;19763;55.798;37.782;2023-05-20T03:19:48;150423.91;;;12.47;63.38
33422;BME280;19763;55.798;37.782;2023-05-20T03:22:13;150443.16;;;12.55;63.42
33422;BME280;19763;55.798;37.782;2023-05-20T03:24:39;150412.31;;;12.42;64.26
33422;BME280;19763;55.798;37.782;2023-05-20T03:27:05;150418.72;;;12.45;64.04
33422;BME280;19763;55.798;37.782;2023-05-20T03:29:31;150423.91;;;12.47;64.30
33422;BME280;19763;55.798;37.782;2023-05-20T03:31:58;150431.59;;;12.50;63.97
33422;BME280;19763;55.798;37.782;2023-05-20T03:34:23;150407.19;;;12.40;64.50
33422;BME280;19763;55.798;37.782;2023-05-20T03:36:50;150436.72;;;12.52;63.65
33422;BME280;19763;55.798;37.782;2023-05-20T03:39:16;150435.44;;;12.52;64.10
33422;BME280;19763;55.798;37.782;2023-05-20T03:41:41;150436.72;;;12.52;64.65
33422;BME280;19763;55.798;37.782;2023-05-20T03:44:07;150453.44;;;12.59;64.53
33422;BME280;19763;55.798;37.782;2023-05-20T03:46:32;150476.53;;;12.68;64.06
33422;BME280;19763;55.798;37.782;2023-05-20T03:48:59;150475.25;;;12.68;63.43
33422;BME280;19763;55.798;37.782;2023-05-20T03:51:26;150470.13;;;12.66;64.03
33422;BME280;19763;55.798;37.782;2023-05-20T03:53:52;150463.72;;;12.63;64.54
33422;BME280;19763;55.798;37.782;2023-05-20T03:56:18;150475.25;;;12.68;63.97
33422;BME280;19763;55.798;37.782;2023-05-20T03:58:43;150482.94;;;12.71;64.78
33422;BME280;19763;55.798;37.782;2023-05-20T04:01:09;150474.00;;;12.67;64.78
33422;BME280;19763;55.798;37.782;2023-05-20T04:03:37;150488.13;;;12.73;65.33
33422;BME280;19763;55.798;37.782;2023-05-20T04:06:03;150493.22;;;12.75;66.16
33422;BME280;19763;55.798;37.782;2023-05-20T04:08:29;150511.22;;;12.82;65.10
33422;BME280;19763;55.798;37.782;2023-05-20T04:10:55;150522.75;;;12.87;65.58
33422;BME280;19763;55.798;37.782;2023-05-20T04:13:21;150513.81;;;12.83;65.05
33422;BME280;19763;55.798;37.782;2023-05-20T04:15:50;150525.34;;;12.88;65.25
33422;BME280;19763;55.798;37.782;2023-05-20T04:18:17;150529.19;;;12.89;64.58
33422;BME280;19763;55.798;37.782;2023-05-20T04:20:44;150552.34;;;12.99;64.09
33422;BME280;19763;55.798;37.782;2023-05-20T04:23:10;150570.34;;;13.06;64.29
33422;BME280;19763;55.798;37.782;2023-05-20T04:25:36;150549.75;;;12.98;64.72
33422;BME280;19763;55.798;37.782;2023-05-20T04:28:02;150572.91;;;13.07;63.84
33422;BME280;19763;55.798;37.782;2023-05-20T04:30:27;150558.78;;;13.01;64.95
33422;BME280;19763;55.798;37.782;2023-05-20T04:32:53;150593.44;;;13.15;63.98
33422;BME280;19763;55.798;37.782;2023-05-20T04:35:18;150620.44;;;13.26;64.82
33422;BME280;19763;55.798;37.782;2023-05-20T04:37:44;150615.28;;;13.24;63.95
33422;BME280;19763;55.798;37.782;2023-05-20T04:40:12;150603.72;;;13.19;64.38
33422;BME280;19763;55.798;37.782;2023-05-20T04:42:38;150599.88;;;13.18;64.85
33422;BME280;19763;55.798;37.782;2023-05-20T04:45:04;150587.06;;;13.12;63.76
33422;BME280;19763;55.798;37.782;2023-05-20T04:47:31;150608.88;;;13.21;64.05
33422;BME280;19763;55.798;37.782;2023-05-20T04:50:07;150644.91;;;13.36;63.46
33422;BME280;19763;55.798;37.782;2023-05-20T04:52:37;150655.19;;;13.40;63.45
33422;BME280;19763;55.798;37.782;2023-05-20T04:55:07;150680.91;;;13.50;64.38
33422;BME280;19763;55.798;37.782;2023-05-20T04:57:34;150671.88;;;13.46;62.85
33422;BME280;19763;55.798;37.782;2023-05-20T05:00:00;150695.03;;;13.56;63.59
33422;BME280;19763;55.798;37.782;2023-05-20T05:02:26;150718.16;;;13.65;63.39
33422;BME280;19763;55.798;37.782;2023-05-20T05:04:52;150705.31;;;13.60;63.05
33422;BME280;19763;55.798;37.782;2023-05-20T05:07:17;150686.00;;;13.52;62.67
33422;BME280;19763;55.798;37.782;2023-05-20T05:09:43;150711.75;;;13.62;63.71
33422;BME280;19763;55.798;37.782;2023-05-20T05:12:09;150704.00;;;13.59;63.42
33422;BME280;19763;55.798;37.782;2023-05-20T05:14:34;150746.44;;;13.76;63.62
33422;BME280;19763;55.798;37.782;2023-05-20T05:17:00;150763.16;;;13.83;62.77
33422;BME280;19763;55.798;37.782;2023-05-20T05:19:26;150755.44;;;13.80;62.39
33422;BME280;19763;55.798;37.782;2023-05-20T05:21:51;150767.00;;;13.85;63.12
33422;BME280;19763;55.798;37.782;2023-05-20T05:24:17;150727.16;;;13.69;63.04
33422;BME280;19763;55.798;37.782;2023-05-20T05:26:43;150774.72;;;13.88;62.59
33422;BME280;19763;55.798;37.782;2023-05-20T05:29:08;150788.84;;;13.93;62.94
33422;BME280;19763;55.798;37.782;2023-05-20T05:31:34;150788.84;;;13.93;62.40
33422;BME280;19763;55.798;37.782;2023-05-20T05:33:59;150813.28;;;14.03;62.18
33422;BME280;19763;55.798;37.782;2023-05-20T05:36:25;150799.16;;;13.97;62.80
33422;BME280;19763;55.798;37.782;2023-05-20T05:38:51;150833.88;;;14.11;62.70
33422;BME280;19763;55.798;37.782;2023-05-20T05:41:16;150815.88;;;14.04;62.79
33422;BME280;19763;55.798;37.782;2023-05-20T05:43:42;150828.69;;;14.09;62.47
33422;BME280;19763;55.798;37.782;2023-05-20T05:46:08;150860.84;;;14.22;62.62
33422;BME280;19763;55.798;37.782;2023-05-20T05:48:35;150808.16;;;14.01;61.75
33422;BME280;19763;55.798;37.782;2023-05-20T05:51:01;150858.31;;;14.21;61.87
33422;BME280;19763;55.798;37.782;2023-05-20T05:53:26;150898.16;;;14.37;61.13
33422;BME280;19763;55.798;37.782;2023-05-20T05:55:52;150911.06;;;14.42;61.84
33422;BME280;19763;55.798;37.782;2023-05-20T05:58:18;150916.19;;;14.44;61.38
33422;BME280;19763;55.798;37.782;2023-05-20T06:00:43;150891.72;;;14.35;60.97
33422;BME280;19763;55.798;37.782;2023-05-20T06:03:09;150894.31;;;14.36;61.25
33422;BME280;19763;55.798;37.782;2023-05-20T06:05:35;150881.44;;;14.30;60.57
33422;BME280;19763;55.798;37.782;2023-05-20T06:08:00;150947.06;;;14.57;60.44
33422;BME280;19763;55.798;37.782;2023-05-20T06:10:26;150958.63;;;14.61;60.90
33422;BME280;19763;55.798;37.782;2023-05-20T06:12:52;150930.31;;;14.50;60.71
33422;BME280;19763;55.798;37.782;2023-05-20T06:15:17;150912.31;;;14.43;60.60
33422;BME280;19763;55.798;37.782;2023-05-20T06:17:43;150977.94;;;14.69;60.70
33422;BME280;19763;55.798;37.782;2023-05-20T06:20:09;150959.94;;;14.62;60.67
33422;BME280;19763;55.798;37.782;2023-05-20T06:22:35;150980.53;;;14.70;60.15
33422;BME280;19763;55.798;37.782;2023-05-20T06:25:01;150999.84;;;14.78;59.70
33422;BME280;19763;55.798;37.782;2023-05-20T06:27:27;151059.00;;;15.01;60.29
33422;BME280;19763;55.798;37.782;2023-05-20T06:29:52;150999.84;;;14.78;58.55
33422;BME280;19763;55.798;37.782;2023-05-20T06:32:18;151052.56;;;14.99;59.12
33422;BME280;19763;55.798;37.782;2023-05-20T06:34:44;151092.50;;;15.15;58.64
33422;BME280;19763;55.798;37.782;2023-05-20T06:37:10;151079.63;;;15.10;60.29
33422;BME280;19763;55.798;37.782;2023-05-20T06:39:36;151092.50;;;15.15;58.57
33422;BME280;19763;55.798;37.782;2023-05-20T06:42:02;151128.53;;;15.29;58.40
33422;BME280;19763;55.798;37.782;2023-05-20T06:44:28;151101.47;;;15.18;56.89
33422;BME280;19763;55.798;37.782;2023-05-20T06:46:53;151087.31;;;15.13;58.24
33422;BME280;19763;55.798;37.782;2023-05-20T06:49:19;151138.84;;;15.33;58.11
33422;BME280;19763;55.798;37.782;2023-05-20T06:51:45;151123.34;;;15.27;57.50
33422;BME280;19763;55.798;37.782;2023-05-20T06:54:10;151164.56;;;15.44;58.10
33422;BME280;19763;55.798;37.782;2023-05-20T06:56:36;151187.69;;;15.53;57.00
33422;BME280;19763;55.798;37.782;2023-05-20T06:59:02;151186.44;;;15.52;56.63
33422;BME280;19763;55.798;37.782;2023-05-20T07:01:27;151177.41;;;15.49;56.67
33422;BME280;19763;55.798;37.782;2023-05-20T07:03:53;151196.75;;;15.57;56.59
33422;BME280;19763;55.798;37.782;2023-05-20T07:06:18;151205.72;;;15.60;56.08
33422;BME280;19763;55.798;37.782;2023-05-20T07:08:44;151257.28;;;15.81;56.72
33422;BME280;19763;55.798;37.782;2023-05-20T07:11:09;151204.44;;;15.60;56.35
33422;BME280;19763;55.798;37.782;2023-05-20T07:13:36;151226.31;;;15.68;56.24
33422;BME280;19763;55.798;37.782;2023-05-20T07:16:02;151230.19;;;15.70;56.67
33422;BME280;19763;55.798;37.782;2023-05-20T07:18:28;151244.34;;;15.76;56.30
33422;BME280;19763;55.798;37.782;2023-05-20T07:20:54;151246.94;;;15.77;54.87
33422;BME280;19763;55.798;37.782;2023-05-20T07:23:22;151232.78;;;15.71;54.50
33422;BME280;19763;55.798;37.782;2023-05-20T07:25:47;151254.69;;;15.80;54.66
33422;BME280;19763;55.798;37.782;2023-05-20T07:28:15;151245.66;;;15.76;55.36
33422;BME280;19763;55.798;37.782;2023-05-20T07:30:42;151265.00;;;15.84;54.64
33422;BME280;19763;55.798;37.782;2023-05-20T07:33:15;151293.34;;;15.95;53.68
33422;BME280;19763;55.798;37.782;2023-05-20T07:35:41;151288.16;;;15.93;52.67
33422;BME280;19763;55.798;37.782;2023-05-20T07:38:07;151351.28;;;16.18;52.13
33422;BME280;19763;55.798;37.782;2023-05-20T07:40:33;151348.69;;;16.17;51.22
33422;BME280;19763;55.798;37.782;2023-05-20T07:42:58;151396.34;;;16.36;50.97
33422;BME280;19763;55.798;37.782;2023-05-20T07:45:24;151419.53;;;16.46;51.25
33422;BME280;19763;55.798;37.782;2023-05-20T07:47:50;151446.59;;;16.56;50.75
33422;BME280;19763;55.798;37.782;2023-05-20T07:50:15;151429.81;;;16.50;50.82
33422;BME280;19763;55.798;37.782;2023-05-20T07:52:41;151422.09;;;16.47;50.04
33422;BME280;19763;55.798;37.782;2023-05-20T07:55:06;151442.72;;;16.55;49.79
33422;BME280;19763;55.798;37.782;2023-05-20T07:57:32;151440.13;;;16.54;49.82
33422;BME280;19763;55.798;37.782;2023-05-20T07:59:58;151391.19;;;16.34;48.78
33422;BME280;19763;55.798;37.782;2023-05-20T08:02:23;151401.50;;;16.38;48.11
33422;BME280;19763;55.798;37.782;2023-05-20T08:04:49;151401.50;;;16.38;49.40
33422;BME280;19763;55.798;37.782;2023-05-20T08:07:14;151411.78;;;16.43;49.50
33422;BME280;19763;55.798;37.782;2023-05-20T08:09:40;151391.19;;;16.34;49.35
33422;BME280;19763;55.798;37.782;2023-05-20T08:12:06;151438.88;;;16.53;49.22
33422;BME280;19763;55.798;37.782;2023-05-20T08:14:31;151384.78;;;16.32;48.47
33422;BME280;19763;55.798;37.782;2023-05-20T08:16:57;151352.59;;;16.19;50.41
33422;BME280;19763;55.798;37.782;2023-05-20T08:19:22;151392.50;;;16.35;50.74
33422;BME280;19763;55.798;37.782;2023-05-20T08:21:48;151404.09;;;16.39;50.70
33422;BME280;19763;55.798;37.782;2023-05-20T08:24:14;151414.38;;;16.44;50.77
33422;BME280;19763;55.798;37.782;2023-05-20T08:26:39;151338.41;;;16.13;48.21
33422;BME280;19763;55.798;37.782;2023-05-20T08:29:05;151337.09;;;16.13;49.09
33422;BME280;19763;55.798;37.782;2023-05-20T08:31:32;151375.75;;;16.28;49.75
33422;BME280;19763;55.798;37.782;2023-05-20T08:33:58;151377.00;;;16.29;50.67
33422;BME280;19763;55.798;37.782;2023-05-20T08:36:23;151375.75;;;16.28;49.58
33422;BME280;19763;55.798;37.782;2023-05-20T08:38:49;151388.66;;;16.33;48.93
33422;BME280;19763;55.798;37.782;2023-05-20T08:41:15;151371.88;;;16.27;49.21
33422;BME280;19763;55.798;37.782;2023-05-20T08:43:41;151374.47;;;16.28;49.85
33422;BME280;19763;55.798;37.782;2023-05-20T08:46:08;151384.78;;;16.32;50.01
33422;BME280;19763;55.798;37.782;2023-05-20T08:48:34;151440.13;;;16.54;50.12
33422;BME280;19763;55.798;37.782;2023-05-20T08:51:02;151416.97;;;16.45;49.33
33422;BME280;19763;55.798;37.782;2023-05-20T08:53:28;151411.78;;;16.43;49.67
33422;BME280;19763;55.798;37.782;2023-05-20T08:55:55;151351.28;;;16.18;48.77
33422;BME280;19763;55.798;37.782;2023-05-20T08:58:23;151396.34;;;16.36;49.89
33422;BME280;19763;55.798;37.782;2023-05-20T09:00:50;151388.66;;;16.33;50.22
33422;BME280;19763;55.798;37.782;2023-05-20T09:03:17;151415.66;;;16.44;51.07
33422;BME280;19763;55.798;37.782;2023-05-20T09:05:45;151447.84;;;16.57;50.92
33422;BME280;19763;55.798;37.782;2023-05-20T09:08:11;151455.56;;;16.60;50.09
33422;BME280;19763;55.798;37.782;2023-05-20T09:10:38;151458.16;;;16.61;49.94
33422;BME280;19763;55.798;37.782;2023-05-20T09:13:05;151490.38;;;16.74;50.51
33422;BME280;19763;55.798;37.782;2023-05-20T09:15:32;151504.53;;;16.80;49.39
33422;BME280;19763;55.798;37.782;2023-05-20T09:17:59;151445.31;;;16.56;49.05
33422;BME280;19763;55.798;37.782;2023-05-20T09:20:26;151445.31;;;16.56;48.32
33422;BME280;19763;55.798;37.782;2023-05-20T09:22:57;151453.03;;;16.59;49.04
33422;BME280;19763;55.798;37.782;2023-05-20T09:25:23;151477.53;;;16.69;48.33
33422;BME280;19763;55.798;37.782;2023-05-20T09:27:49;151486.50;;;16.72;49.63
33422;BME280;19763;55.798;37.782;2023-05-20T09:30:18;151432.41;;;16.51;49.60
33422;BME280;19763;55.798;37.782;2023-05-20T09:32:44;151419.53;;;16.46;47.84
33422;BME280;19763;55.798;37.782;2023-05-20T09:35:12;151360.31;;;16.22;47.98
33422;BME280;19763;55.798;37.782;2023-05-20T09:37:41;151382.19;;;16.31;48.19
33422;BME280;19763;55.798;37.782;2023-05-20T09:40:07;151369.28;;;16.26;49.95
33422;BME280;19763;55.798;37.782;2023-05-20T09:42:46;151353.84;;;16.19;49.67
33422;BME280;19763;55.798;37.782;2023-05-20T09:45:15;151343.53;;;16.15;49.79
33422;BME280;19763;55.798;37.782;2023-05-20T09:47:40;151351.28;;;16.18;51.14
33422;BME280;19763;55.798;37.782;2023-05-20T09:50:08;151355.13;;;16.20;50.50
33422;BME280;19763;55.798;37.782;2023-05-20T09:52:38;151357.72;;;16.21;50.99
33422;BME280;19763;55.798;37.782;2023-05-20T09:55:04;151329.38;;;16.10;51.54
33422;BME280;19763;55.798;37.782;2023-05-20T09:57:34;151331.97;;;16.11;50.60
33422;BME280;19763;55.798;37.782;2023-05-20T10:00:00;151326.78;;;16.09;48.33
33422;BME280;19763;55.798;37.782;2023-05-20T10:02:27;151346.13;;;16.16;49.15
33422;BME280;19763;55.798;37.782;2023-05-20T10:04:54;151334.50;;;16.12;49.28
33422;BME280;19763;55.798;37.782;2023-05-20T10:10:32;151303.63;;;15.99;48.27
33422;BME280;19763;55.798;37.782;2023-05-20T10:15:52;151338.41;;;16.13;47.97
33422;BME280;19763;55.798;37.782;2023-05-20T10:18:39;151358.97;;;16.21;47.47
33422;BME280;19763;55.798;37.782;2023-05-20T10:21:17;151317.81;;;16.05;48.25
33422;BME280;19763;55.798;37.782;2023-05-20T10:23:43;151358.97;;;16.21;48.50
33422;BME280;19763;55.798;37.782;2023-05-20T10:26:09;151388.66;;;16.33;48.27
33422;BME280;19763;55.798;37.782;2023-05-20T10:28:36;151422.09;;;16.47;49.00
33422;BME280;19763;55.798;37.782;2023-05-20T10:31:13;151462.03;;;16.63;48.54
33422;BME280;19763;55.798;37.782;2023-05-20T10:33:43;151419.53;;;16.46;47.79
33422;BME280;19763;55.798;37.782;2023-05-20T10:36:09;151436.28;;;16.52;48.09
33422;BME280;19763;55.798;37.782;2023-05-20T10:38:36;151409.22;;;16.42;47.37
33422;BME280;19763;55.798;37.782;2023-05-20T10:41:08;151453.03;;;16.59;48.14
33422;BME280;19763;55.798;37.782;2023-05-20T10:43:37;151467.22;;;16.65;47.77
33422;BME280;19763;55.798;37.782;2023-05-20T10:46:02;151446.59;;;16.56;48.58
33422;BME280;19763;55.798;37.782;2023-05-20T10:48:30;151442.72;;;16.55;47.06
33422;BME280;19763;55.798;37.782;2023-05-20T10:50:57;151445.31;;;16.56;48.20
33422;BME280;19763;55.798;37.782;2023-05-20T10:53:25;151414.38;;;16.44;46.73
33422;BME280;19763;55.798;37.782;2023-05-20T10:55:53;151499.41;;;16.78;47.44
33422;BME280;19763;55.798;37.782;2023-05-20T10:58:23;151522.59;;;16.87;47.32
33422;BME280;19763;55.798;37.782;2023-05-20T11:00:53;151518.72;;;16.85;46.46
33422;BME280;19763;55.798;37.782;2023-05-20T11:03:21;151498.09;;;16.77;46.84
33422;BME280;19763;55.798;37.782;2023-05-20T11:05:47;151523.91;;;16.87;46.86
33422;BME280;19763;55.798;37.782;2023-05-20T11:08:12;151511.00;;;16.82;47.48
33422;BME280;19763;55.798;37.782;2023-05-20T11:10:40;151489.09;;;16.73;48.31
33422;BME280;19763;55.798;37.782;2023-05-20T11:13:05;151481.38;;;16.70;46.53
33422;BME280;19763;55.798;37.782;2023-05-20T11:15:33;151478.78;;;16.69;47.40
33422;BME280;19763;55.798;37.782;2023-05-20T11:18:02;151440.13;;;16.54;47.24
33422;BME280;19763;55.798;37.782;2023-05-20T11:20:29;151494.22;;;16.76;47.47
33422;BME280;19763;55.798;37.782;2023-05-20T11:22:55;151489.09;;;16.73;47.34
33422;BME280;19763;55.798;37.782;2023-05-20T11:25:22;151480.06;;;16.70;47.06
33422;BME280;19763;55.798;37.782;2023-05-20T11:27:48;151469.75;;;16.66;46.01
33422;BME280;19763;55.798;37.782;2023-05-20T11:30:15;151460.75;;;16.62;44.87
33422;BME280;19763;55.798;37.782;2023-05-20T11:33:00;151480.06;;;16.70;44.95
33422;BME280;19763;55.798;37.782;2023-05-20T11:35:27;151463.34;;;16.63;46.08
33422;BME280;19763;55.798;37.782;2023-05-20T11:37:59;151478.78;;;16.69;45.89
33422;BME280;19763;55.798;37.782;2023-05-20T11:40:26;151476.19;;;16.68;46.46
33422;BME280;19763;55.798;37.782;2023-05-20T11:43:00;151454.31;;;16.60;47.16
33422;BME280;19763;55.798;37.782;2023-05-20T11:45:26;151437.56;;;16.53;47.11
33422;BME280;19763;55.798;37.782;2023-05-20T11:48:02;151472.34;;;16.67;46.71
33422;BME280;19763;55.798;37.782;2023-05-20T11:50:36;151450.44;;;16.58;45.89
33422;BME280;19763;55.798;37.782;2023-05-20T11:53:04;151483.91;;;16.71;46.05
33422;BME280;19763;55.798;37.782;2023-05-20T11:55:31;151512.28;;;16.83;46.02
33422;BME280;19763;55.798;37.782;2023-05-20T11:58:00;151539.41;;;16.94;46.78
33422;BME280;19763;55.798;37.782;2023-05-20T12:00:27;151543.25;;;16.95;47.27
33422;BME280;19763;55.798;37.782;2023-05-20T12:02:53;151539.41;;;16.94;45.99
33422;BME280;19763;55.798;37.782;2023-05-20T12:05:19;151535.53;;;16.92;44.69
33422;BME280;19763;55.798;37.782;2023-05-20T12:07:45;151511.00;;;16.82;44.12
33422;BME280;19763;55.798;37.782;2023-05-20T12:10:10;151517.44;;;16.85;45.37
33422;BME280;19763;55.798;37.782;2023-05-20T12:12:38;151545.84;;;16.96;44.84
33422;BME280;19763;55.798;37.782;2023-05-20T12:15:04;151571.59;;;17.06;45.26
33422;BME280;19763;55.798;37.782;2023-05-20T12:17:49;151567.75;;;17.05;44.55
33422;BME280;19763;55.798;37.782;2023-05-20T12:20:16;151548.38;;;16.97;44.99
33422;BME280;19763;55.798;37.782;2023-05-20T12:22:45;151541.97;;;16.95;44.41
33422;BME280;19763;55.798;37.782;2023-05-20T12:25:12;151504.53;;;16.80;45.30
33422;BME280;19763;55.798;37.782;2023-05-20T12:27:40;151539.41;;;16.94;44.80
33422;BME280;19763;55.798;37.782;2023-05-20T12:30:22;151539.41;;;16.94;43.54
33422;BME280;19763;55.798;37.782;2023-05-20T12:32:49;151522.59;;;16.87;42.91
33422;BME280;19763;55.798;37.782;2023-05-20T12:35:16;151544.53;;;16.96;43.75
33422;BME280;19763;55.798;37.782;2023-05-20T12:37:43;151501.97;;;16.79;43.04
33422;BME280;19763;55.798;37.782;2023-05-20T12:40:10;151468.47;;;16.65;42.00
33422;BME280;19763;55.798;37.782;2023-05-20T12:42:38;151523.91;;;16.87;41.53
33422;BME280;19763;55.798;37.782;2023-05-20T12:45:04;151492.97;;;16.75;41.12